Meteo Giornale » Osservazioni meteo Italia » Catania-Fontanarossa

ore: 14:50 - Osservazioni Meteo Catania-Fontanarossa
Lat. 37° 28' N Lon. 15° 3' E Alt. 11 metri s.l.m.

coperto_pioggia Europe/Rome

11 °C

Pioggia Debole

Temp. 24 Ore

2 °C

16 °C

Ovest/Nord-Ovest

11.1 Km/h

Dew point 10 °C

Umidità 93 %

Visibilità  5 Km

Il sole sorge alle ore 06:38

Il sole tramonta alle ore 17:47

Data e Ora Cielo e Fenomeni T °C DP °C Um. % Pres. hPa Vis. km Vento km/h
Oggi h: 14:50 coperto_pioggia Pioggia Debole 11 10 93 1003 5 O/NO 11.1
Oggi h: 14:20 coperto_pioggia Pioggia 11 10 93 1003 4 NE 11.1
Oggi h: 13:50 coperto_pioggia Pioggia 11 9 87 1003 4 NE 9.3
Oggi h: 13:20 coperto_pioggia Pioggia 12 9 81 1003 4 N 5.5
Oggi h: 12:50 coperto_pioggia Pioggia Debole 12 8 76 1003 8 NE 13
Oggi h: 12:20 molto_nuvoloso Molto Nuvoloso 12 7 71 1004 10 NE 11.1
Oggi h: 11:50 coperto_pioggia Pioggia Debole 11 7 76 1004 10 NE 7.4
Oggi h: 11:20 coperto_pioggia Pioggia Debole 11 7 76 1004 10 N 5.5
Oggi h: 10:50 coperto_pioggia Pioggia Debole 12 6 66 1004 10 N 3.7
Oggi h: 10:20 molto_nuvoloso Molto Nuvoloso 11 6 71 1004 10 N 3.7
Oggi h: 09:50 molto_nuvoloso Molto Nuvoloso 11 8 81 1004 10 N 1.8
Oggi h: 09:20 coperto_pioggia Pioggia Debole 9 6 81 1004 8 N 5.5
Oggi h: 08:50 molto_nuvoloso Molto Nuvoloso 8 6 87 1004 10 O 9.3
Oggi h: 08:20 molto_nuvoloso Molto Nuvoloso 6 5 93 1004 10 O/SO 7.4
Oggi h: 07:50 molto_nuvoloso Molto Nuvoloso 5 4 93 1004 10 N 5.5
Oggi h: 07:20 molto_nuvoloso Molto Nuvoloso 4 3 93 1004 10 O/SO 9.3
Oggi h: 06:50 molto_nuvoloso Molto Nuvoloso 3 2 93 1004 10 O/SO 9.3
Oggi h: 06:20 nuvoloso Nuvoloso 3 2 93 1004 10 O 7.4
Oggi h: 05:50 nuvoloso Nuvoloso 3 2 93 1004 10 O 9.3
Oggi h: 05:20 nuvoloso Nuvoloso 3 2 93 1003 10 SO 7.4
Oggi h: 04:50 nuvoloso Nuvoloso 4 3 93 1003 10 N 5.5
Oggi h: 04:20 nuvoloso Nuvoloso 3 2 93 1003 10 O/SO 7.4
Oggi h: 03:50 nuvoloso Nuvoloso 4 2 86 1003 10 O 13
Oggi h: 03:20 sereno Sereno 3 2 93 1004 10 O 16.7
Oggi h: 02:50 sereno Sereno 3 2 93 1004 10 O 14.8
Oggi h: 02:20 sereno Sereno 2 1 93 1004 10 O/SO 9.3
Oggi h: 01:50 sereno Sereno 3 2 93 1003 10 N 5.5
Oggi h: 01:20 sereno Sereno 3 2 93 1004 10 O/SO 11.1
Oggi h: 00:50 sereno Sereno 3 2 93 1004 10 O/SO 11.1
Oggi h: 00:20 sereno Sereno 4 2 86 1004 10 O 13
Ieri h: 23:50 sereno Sereno 6 3 81 1004 10 N 1.8
Ieri h: 23:20 sereno Sereno 6 3 81 1003 10 S/SO 7.4
Ieri h: 22:50 sereno Sereno 5 3 86 1003 10 O 11.1
Ieri h: 22:20 sereno Sereno 5 3 86 1003 10 O 13
Ieri h: 21:50 poco_nuvoloso Poco Nuvoloso 5 3 86 1003 10 O 9.3
Ieri h: 21:20 poco_nuvoloso Poco Nuvoloso 6 3 81 1003 10 O 11.1
Ieri h: 20:50 sereno Sereno 7 4 81 1002 10 O 14.8
Ieri h: 20:20 poco_nuvoloso Poco Nuvoloso 7 3 75 1002 10 O/SO 7.4
Ieri h: 19:50 nuvoloso Nuvoloso 8 4 75 1002 10 O 7.4
Ieri h: 19:20 nuvoloso Nuvoloso 9 4 70 1001 10 N 5.5
Ieri h: 18:50 nuvoloso Nuvoloso 9 5 75 1001 10 O/SO 9.3
Ieri h: 18:20 nuvoloso Nuvoloso 11 7 76 1001 10 N 1.8
Ieri h: 17:50 nuvoloso Nuvoloso 12 7 71 1000 10 E 11.1
Ieri h: 17:20 nuvoloso Nuvoloso 13 7 66 1000 10 E/NE 11.1
Ieri h: 16:50 nuvoloso Nuvoloso 13 8 71 1000 10 NE 11.1
Ieri h: 16:20 nuvoloso Nuvoloso 15 5 51 999 10 N 9.3
Ieri h: 15:50 nuvoloso Nuvoloso 16 3 41 999 10 O 18.5
Ieri h: 15:20 nuvoloso Nuvoloso 16 4 44 999 10 O 20.3
Ieri h: 14:50 nuvoloso Nuvoloso 16 4 44 999 10 O 27.8